Time;durP1;ratioP1;P1;durP2;ratioP2;P2;SDS_P1;SDS_P2;PMS_P1;PMS_P2;Temp;Humidity;BMP_temperature;BMP_pressure;BME280_temperature;BME280_humidity;BME280_pressure;Samples;Min_cycle;Max_cycle;Signal;HPM_P1;HPM_P2
2023/04/21 00:03:37;;;;;;;5.32;1.85;;;;;;;;;;20831567;28;20560;-62
2023/04/21 00:13:38;;;;;;;6.40;1.85;;;;;;;;;;20830578;28;20049;-62
2023/04/21 00:23:40;;;;;;;5.22;2.00;;;;;;;;;;20829100;28;20080;-62
2023/04/21 00:33:42;;;;;;;5.80;1.98;;;;;;;;;;20843772;28;20056;-62
2023/04/21 00:43:59;;;;;;;4.45;2.50;;;;;;;;;;20844760;28;20107;-61
2023/04/21 00:54:04;;;;;;;8.67;3.73;;;;;;;;;;20844914;28;20049;-62
2023/04/21 01:04:09;;;;;;;7.88;3.08;;;;;;;;;;20844329;28;20130;-63
2023/04/21 01:14:10;;;;;;;7.28;3.30;;;;;;;;;;20842295;28;20049;-62
2023/04/21 01:24:12;;;;;;;3.33;1.60;;;;;;;;;;20843191;28;20495;-61
2023/04/21 01:34:14;;;;;;;3.78;1.77;;;;;;;;;;20842212;28;20045;-63
2023/04/21 01:44:16;;;;;;;4.07;1.60;;;;;;;;;;20840863;28;20057;-62
2023/04/21 01:54:18;;;;;;;4.43;1.42;;;;;;;;;;20840155;28;20049;-61
2023/04/21 02:04:19;;;;;;;6.45;1.90;;;;;;;;;;20840631;28;20045;-62
2023/04/21 02:14:21;;;;;;;4.28;1.60;;;;;;;;;;20839108;28;20049;-61
2023/04/21 02:24:23;;;;;;;6.18;2.00;;;;;;;;;;20837293;28;20053;-61
2023/04/21 02:34:25;;;;;;;6.72;1.75;;;;;;;;;;20837458;28;20538;-62
2023/04/21 02:44:26;;;;;;;5.72;1.70;;;;;;;;;;20836799;28;20454;-61
2023/04/21 02:54:28;;;;;;;2.10;1.35;;;;;;;;;;20835255;28;20045;-61
2023/04/21 03:04:31;;;;;;;4.35;1.70;;;;;;;;;;20835923;28;20467;-62
2023/04/21 03:14:32;;;;;;;5.65;1.45;;;;;;;;;;20834060;28;20104;-61
2023/04/21 03:24:34;;;;;;;3.53;1.73;;;;;;;;;;20833281;28;20061;-62
2023/04/21 03:34:36;;;;;;;5.30;2.40;;;;;;;;;;20833703;28;20479;-62
2023/04/21 03:44:38;;;;;;;5.85;2.42;;;;;;;;;;20833317;28;20513;-62
2023/04/21 03:54:40;;;;;;;6.15;2.80;;;;;;;;;;20832646;28;20053;-62
2023/04/21 04:04:41;;;;;;;5.38;2.60;;;;;;;;;;20831783;28;20072;-62
2023/04/21 04:14:43;;;;;;;8.35;3.03;;;;;;;;;;20830495;28;20049;-62
2023/04/21 04:24:46;;;;;;;6.75;3.10;;;;;;;;;;20832158;28;20075;-61
2023/04/21 04:34:48;;;;;;;12.35;3.67;;;;;;;;;;20830910;28;20052;-61
2023/04/21 04:44:53;;;;;;;7.40;3.17;;;;;;;;;;20829658;28;20049;-62
2023/04/21 04:54:55;;;;;;;10.95;4.50;;;;;;;;;;20829686;28;20094;-61
2023/04/21 05:04:56;;;;;;;6.78;2.70;;;;;;;;;;20829750;28;20057;-62
2023/04/21 05:14:58;;;;;;;12.90;3.65;;;;;;;;;;20833091;28;20061;-62
2023/04/21 05:25:00;;;;;;;8.93;3.53;;;;;;;;;;20842898;28;20080;-61
2023/04/21 05:35:01;;;;;;;7.85;3.38;;;;;;;;;;20843390;28;20479;-61
2023/04/21 05:45:03;;;;;;;8.40;3.28;;;;;;;;;;20841413;28;20054;-61
2023/04/21 05:55:05;;;;;;;10.55;3.13;;;;;;;;;;20842011;28;20049;-62
2023/04/21 06:05:07;;;;;;;12.68;2.92;;;;;;;;;;20839813;28;20049;-62
2023/04/21 06:15:09;;;;;;;14.68;4.18;;;;;;;;;;20838782;28;20049;-62
2023/04/21 06:25:10;;;;;;;12.40;3.55;;;;;;;;;;20839597;28;20115;-62
2023/04/21 06:35:13;;;;;;;9.13;4.20;;;;;;;;;;20838776;28;20076;-61
2023/04/21 06:45:15;;;;;;;13.20;4.18;;;;;;;;;;20838071;28;20057;-61
2023/04/21 06:55:17;;;;;;;14.35;4.35;;;;;;;;;;20836901;28;20046;-62
2023/04/21 07:05:19;;;;;;;15.55;4.60;;;;;;;;;;20834585;28;20045;-61
2023/04/21 07:15:21;;;;;;;13.52;4.40;;;;;;;;;;20835391;28;20041;-61
2023/04/21 07:25:23;;;;;;;18.38;4.55;;;;;;;;;;20833542;28;20057;-62
2023/04/21 07:35:25;;;;;;;17.02;5.25;;;;;;;;;;20833851;28;20072;-62
2023/04/21 07:45:27;;;;;;;15.32;4.40;;;;;;;;;;20833847;28;20045;-62
2023/04/21 07:55:29;;;;;;;13.10;3.90;;;;;;;;;;20831191;28;20050;-61
2023/04/21 08:05:31;;;;;;;15.25;4.32;;;;;;;;;;20832102;28;20406;-62
2023/04/21 08:15:33;;;;;;;9.70;3.85;;;;;;;;;;20831744;28;20110;-61
2023/04/21 08:25:35;;;;;;;15.07;3.70;;;;;;;;;;20830269;28;20392;-60
2023/04/21 08:35:36;;;;;;;7.78;3.10;;;;;;;;;;20831084;28;20433;-60
2023/04/21 08:45:39;;;;;;;14.23;4.10;;;;;;;;;;20829671;28;20742;-63
2023/04/21 08:55:41;;;;;;;11.60;3.53;;;;;;;;;;20874204;28;20059;-68
2023/04/21 09:05:43;;;;;;;11.40;4.60;;;;;;;;;;20840524;28;20053;-64
2023/04/21 09:15:46;;;;;;;11.60;4.78;;;;;;;;;;20857047;28;20052;-63
2023/04/21 09:25:47;;;;;;;14.75;4.47;;;;;;;;;;20840985;28;20057;-70
2023/04/21 09:35:50;;;;;;;14.65;4.35;;;;;;;;;;20867264;28;20064;-65
2023/04/21 09:45:51;;;;;;;11.45;3.47;;;;;;;;;;20854547;28;20044;-63
2023/04/21 09:55:55;;;;;;;14.43;4.65;;;;;;;;;;20833408;28;20054;-67
2023/04/21 10:05:58;;;;;;;9.27;4.10;;;;;;;;;;20832154;28;20054;-61
2023/04/21 10:16:06;;;;;;;11.60;3.45;;;;;;;;;;20837027;28;20057;-62
2023/04/21 10:26:12;;;;;;;12.82;4.38;;;;;;;;;;20829903;28;20065;-61
2023/04/21 10:36:23;;;;;;;9.30;2.97;;;;;;;;;;20837506;28;20095;-62
2023/04/21 10:46:35;;;;;;;6.38;2.25;;;;;;;;;;20838196;28;20053;-62
2023/04/21 10:56:36;;;;;;;7.25;2.22;;;;;;;;;;20836364;28;20056;-62
2023/04/21 11:06:38;;;;;;;8.70;2.30;;;;;;;;;;20837006;28;20056;-62
2023/04/21 11:16:42;;;;;;;8.30;2.03;;;;;;;;;;20834632;28;20056;-62
2023/04/21 11:26:44;;;;;;;6.60;2.53;;;;;;;;;;20834028;28;20053;-64
2023/04/21 11:36:47;;;;;;;7.70;2.20;;;;;;;;;;20834350;28;20483;-62
2023/04/21 11:46:48;;;;;;;5.65;2.80;;;;;;;;;;20832281;28;20053;-61
2023/04/21 11:56:51;;;;;;;4.57;2.05;;;;;;;;;;20832567;28;20045;-62
2023/04/21 12:06:59;;;;;;;8.65;2.95;;;;;;;;;;20830948;28;20050;-62
2023/04/21 12:17:01;;;;;;;4.57;1.88;;;;;;;;;;20824788;28;20048;-69
2023/04/21 12:27:03;;;;;;;9.57;3.58;;;;;;;;;;20815017;28;20045;-71
2023/04/21 12:37:05;;;;;;;9.63;2.35;;;;;;;;;;20809774;28;20420;-60
2023/04/21 12:47:06;;;;;;;4.40;1.88;;;;;;;;;;20823661;28;20454;-62
2023/04/21 12:57:08;;;;;;;10.02;2.70;;;;;;;;;;20824268;28;20045;-61
2023/04/21 13:07:10;;;;;;;11.10;2.78;;;;;;;;;;20824928;28;20050;-61
2023/04/21 13:17:12;;;;;;;8.05;2.13;;;;;;;;;;20828916;28;20049;-66
2023/04/21 13:27:14;;;;;;;4.80;1.92;;;;;;;;;;20829457;28;20406;-67
2023/04/21 13:37:16;;;;;;;4.18;1.58;;;;;;;;;;20835736;28;20540;-67
2023/04/21 13:47:18;;;;;;;5.25;1.73;;;;;;;;;;20842604;28;20099;-68
2023/04/21 13:57:20;;;;;;;4.95;2.05;;;;;;;;;;20842209;28;20041;-69
2023/04/21 14:07:22;;;;;;;5.22;1.77;;;;;;;;;;20841106;28;20045;-67
2023/04/21 14:17:24;;;;;;;3.80;1.77;;;;;;;;;;20838882;28;20053;-66
2023/04/21 14:27:26;;;;;;;7.03;2.00;;;;;;;;;;20840292;28;20501;-66
2023/04/21 14:37:27;;;;;;;6.45;1.50;;;;;;;;;;20838743;28;20052;-63
2023/04/21 14:47:29;;;;;;;6.22;1.50;;;;;;;;;;20834356;28;20092;-62
2023/04/21 14:57:31;;;;;;;7.68;1.88;;;;;;;;;;20836009;28;20099;-71
2023/04/21 15:07:33;;;;;;;3.95;1.50;;;;;;;;;;20837250;28;20483;-65
2023/04/21 15:17:35;;;;;;;6.43;1.48;;;;;;;;;;20827446;28;20104;-65
2023/04/21 15:27:36;;;;;;;5.85;1.63;;;;;;;;;;20829442;28;20052;-67
2023/04/21 15:37:38;;;;;;;7.03;1.83;;;;;;;;;;20832947;28;20045;-68
2023/04/21 15:47:40;;;;;;;5.13;2.22;;;;;;;;;;20831219;28;20053;-69
2023/04/21 15:57:41;;;;;;;7.32;2.25;;;;;;;;;;20823161;28;20079;-70
2023/04/21 16:07:43;;;;;;;5.55;2.05;;;;;;;;;;20829014;28;20045;-68
2023/04/21 16:17:44;;;;;;;7.07;2.33;;;;;;;;;;20836301;28;20080;-67
2023/04/21 16:27:46;;;;;;;7.45;2.35;;;;;;;;;;20828890;28;20132;-65
2023/04/21 16:37:48;;;;;;;7.78;2.08;;;;;;;;;;20829286;28;20045;-66
2023/04/21 16:47:50;;;;;;;6.68;2.33;;;;;;;;;;20830392;28;20049;-65
2023/04/21 16:57:51;;;;;;;5.85;2.70;;;;;;;;;;20830062;28;20061;-65
2023/04/21 17:07:53;;;;;;;13.88;2.38;;;;;;;;;;20831398;28;20053;-65
2023/04/21 17:17:55;;;;;;;4.78;2.00;;;;;;;;;;20844333;28;20049;-65
2023/04/21 17:27:57;;;;;;;4.55;2.00;;;;;;;;;;20844152;28;20053;-65
2023/04/21 17:37:59;;;;;;;7.72;2.28;;;;;;;;;;20843055;28;20049;-66
2023/04/21 17:48:01;;;;;;;8.95;2.53;;;;;;;;;;20842864;28;20541;-65
2023/04/21 17:58:02;;;;;;;8.05;2.13;;;;;;;;;;20842414;28;20479;-64
2023/04/21 18:08:04;;;;;;;9.20;2.92;;;;;;;;;;20839360;28;20057;-65
2023/04/21 18:18:06;;;;;;;6.70;2.75;;;;;;;;;;20837965;28;20058;-66
2023/04/21 18:28:09;;;;;;;10.20;2.95;;;;;;;;;;20836788;28;20055;-65
2023/04/21 18:38:12;;;;;;;7.45;2.17;;;;;;;;;;20836437;28;20050;-65
2023/04/21 18:48:14;;;;;;;5.75;2.60;;;;;;;;;;20835530;28;20049;-62
2023/04/21 18:58:15;;;;;;;13.85;2.95;;;;;;;;;;20828039;28;20045;-66
2023/04/21 19:08:17;;;;;;;9.73;3.00;;;;;;;;;;20831834;28;20057;-68
2023/04/21 19:18:19;;;;;;;9.32;3.00;;;;;;;;;;20834302;28;20067;-64
2023/04/21 19:28:21;;;;;;;9.55;2.65;;;;;;;;;;20833025;28;20053;-65
2023/04/21 19:38:23;;;;;;;8.48;2.67;;;;;;;;;;20832969;28;20501;-64
2023/04/21 19:48:25;;;;;;;9.23;2.70;;;;;;;;;;20832100;28;20053;-64
2023/04/21 19:58:27;;;;;;;6.90;2.33;;;;;;;;;;20831444;28;20065;-65
2023/04/21 20:08:28;;;;;;;6.93;2.88;;;;;;;;;;20831631;28;20118;-65
2023/04/21 20:18:30;;;;;;;11.30;3.10;;;;;;;;;;20829712;28;20195;-64
2023/04/21 20:28:32;;;;;;;8.85;2.80;;;;;;;;;;20830091;28;20486;-64
2023/04/21 20:38:34;;;;;;;14.68;3.13;;;;;;;;;;20828164;28;20049;-65
2023/04/21 20:48:36;;;;;;;10.52;3.40;;;;;;;;;;20840990;28;20379;-65
2023/04/21 20:58:38;;;;;;;11.52;3.53;;;;;;;;;;20844978;28;20049;-64
2023/04/21 21:08:40;;;;;;;6.22;3.10;;;;;;;;;;20842975;28;20060;-64
2023/04/21 21:18:42;;;;;;;7.60;2.63;;;;;;;;;;20843099;28;20049;-66
2023/04/21 21:28:44;;;;;;;8.68;3.25;;;;;;;;;;20842767;28;20045;-65
2023/04/21 21:38:46;;;;;;;9.70;2.80;;;;;;;;;;20841143;28;20053;-64
2023/04/21 21:48:48;;;;;;;8.60;2.47;;;;;;;;;;20840222;28;20136;-64
2023/04/21 21:58:50;;;;;;;8.13;2.85;;;;;;;;;;20839607;28;20045;-65
2023/04/21 22:08:51;;;;;;;8.70;2.60;;;;;;;;;;20839963;28;20410;-64
2023/04/21 22:18:53;;;;;;;7.57;3.05;;;;;;;;;;20837683;28;20065;-64
2023/04/21 22:28:55;;;;;;;5.05;2.20;;;;;;;;;;20837609;28;20052;-64
2023/04/21 22:38:56;;;;;;;6.13;1.88;;;;;;;;;;20837857;28;20424;-64
2023/04/21 22:49:02;;;;;;;5.60;1.83;;;;;;;;;;20836400;28;20054;-65
2023/04/21 22:59:04;;;;;;;5.03;1.65;;;;;;;;;;20836525;28;20045;-65
2023/04/21 23:09:06;;;;;;;5.50;1.98;;;;;;;;;;20835605;28;20075;-64
2023/04/21 23:19:07;;;;;;;1.60;0.80;;;;;;;;;;20833771;28;20057;-65
2023/04/21 23:29:09;;;;;;;4.25;1.05;;;;;;;;;;20833768;28;20054;-64
2023/04/21 23:39:11;;;;;;;2.10;0.60;;;;;;;;;;20833581;28;20174;-63
2023/04/21 23:49:13;;;;;;;1.30;0.63;;;;;;;;;;20832279;28;20049;-65
2023/04/21 23:59:14;;;;;;;1.40;0.60;;;;;;;;;;20831866;28;20045;-65
